Time;durP1;ratioP1;P1;durP2;ratioP2;P2;SDS_P1;SDS_P2;PMS_P1;PMS_P2;Temp;Humidity;BMP_temperature;BMP_pressure;BME280_temperature;BME280_humidity;BME280_pressure;Samples;Min_cycle;Max_cycle;Signal;HPM_P1;HPM_P2
2022/01/22 00:02:03;;;;;;;7.47;4.32;;;0.20;99.90;;;;;;4994383;28;20219;-67
2022/01/22 00:04:31;;;;;;;6.30;4.55;;;0.10;99.90;;;;;;4994088;28;20239;-68
2022/01/22 00:07:01;;;;;;;8.13;4.22;;;0.20;99.90;;;;;;4993648;28;20187;-68
2022/01/22 00:09:35;;;;;;;6.47;3.97;;;0.20;99.90;;;;;;4994810;28;20180;-67
2022/01/22 00:12:02;;;;;;;6.68;4.40;;;0.20;99.90;;;;;;4994200;28;20238;-75
2022/01/22 00:14:30;;;;;;;10.48;4.47;;;0.20;99.90;;;;;;4994417;28;20184;-68
2022/01/22 00:17:08;;;;;;;6.07;4.97;;;0.20;99.90;;;;;;4994136;28;20266;-73
2022/01/22 00:19:41;;;;;;;6.82;4.63;;;0.20;99.90;;;;;;4993638;28;20322;-75
2022/01/22 00:22:09;;;;;;;7.20;5.10;;;0.20;99.90;;;;;;4993783;28;20231;-74
2022/01/22 00:24:38;;;;;;;7.55;4.22;;;0.20;99.90;;;;;;4994280;28;20551;-68
2022/01/22 00:27:08;;;;;;;7.43;4.80;;;0.20;99.90;;;;;;4993888;28;20184;-75
2022/01/22 00:29:36;;;;;;;5.75;4.10;;;0.20;99.90;;;;;;4993951;28;20211;-70
2022/01/22 00:32:05;;;;;;;5.38;4.00;;;0.20;99.90;;;;;;4994228;28;20180;-68
2022/01/22 00:34:34;;;;;;;7.03;4.35;;;0.20;99.90;;;;;;4993806;28;20584;-74
2022/01/22 00:37:02;;;;;;;11.45;4.95;;;0.20;99.90;;;;;;4993677;28;20183;-75
2022/01/22 00:39:34;;;;;;;7.25;4.07;;;0.20;99.90;;;;;;4993863;28;20206;-75
2022/01/22 00:42:04;;;;;;;7.00;4.57;;;0.20;99.90;;;;;;4993559;28;20222;-75
2022/01/22 00:44:31;;;;;;;4.95;4.10;;;0.20;99.90;;;;;;4993766;28;20275;-68
2022/01/22 00:47:00;;;;;;;7.28;4.82;;;0.20;99.90;;;;;;4993370;28;20680;-76
2022/01/22 00:49:26;;;;;;;9.07;5.10;;;0.20;99.90;;;;;;4993473;28;20603;-68
2022/01/22 00:51:54;;;;;;;6.93;4.95;;;0.20;99.90;;;;;;4993471;28;20195;-75
2022/01/22 00:54:35;;;;;;;5.40;3.60;;;0.20;99.90;;;;;;4993277;28;20184;-68
2022/01/22 00:57:05;;;;;;;7.30;4.90;;;0.20;99.90;;;;;;4992153;28;20279;-68
2022/01/22 00:59:35;;;;;;;6.70;4.20;;;0.10;99.90;;;;;;4993506;28;20184;-68
2022/01/22 01:02:07;;;;;;;7.55;3.88;;;0.10;99.90;;;;;;4993377;28;20246;-75
2022/01/22 01:04:42;;;;;;;4.85;3.88;;;0.10;99.90;;;;;;4992976;28;20630;-74
2022/01/22 01:07:11;;;;;;;4.43;3.47;;;0.10;99.90;;;;;;4993230;28;20203;-68
2022/01/22 01:09:39;;;;;;;10.30;3.90;;;0.10;99.90;;;;;;4993507;28;20570;-72
2022/01/22 01:12:13;;;;;;;7.60;4.80;;;0.10;99.90;;;;;;4993212;28;20188;-72
2022/01/22 01:34:16;;;;;;;6.10;4.25;;;-0.10;99.90;;;;;;4994934;28;20541;-72
2022/01/22 01:36:46;;;;;;;6.43;4.57;;;-0.10;99.90;;;;;;4993048;28;20184;-72
2022/01/22 01:39:35;;;;;;;6.97;4.85;;;-0.20;99.90;;;;;;4992756;28;20219;-73
2022/01/22 01:44:30;;;;;;;9.15;5.10;;;-0.20;99.90;;;;;;4994391;28;20172;-65
2022/01/22 01:46:59;;;;;;;5.78;4.07;;;-0.20;99.90;;;;;;4993334;28;20619;-72
2022/01/22 01:49:27;;;;;;;7.88;4.18;;;-0.20;99.90;;;;;;4992848;28;20238;-66
2022/01/22 01:52:01;;;;;;;4.50;3.65;;;-0.20;99.90;;;;;;4992739;28;20187;-71
2022/01/22 01:59:48;;;;;;;4.80;3.50;;;-0.20;99.90;;;;;;4994337;28;20711;-72
2022/01/22 02:02:18;;;;;;;7.60;3.88;;;-0.20;99.90;;;;;;4992488;28;20223;-73
2022/01/22 02:04:45;;;;;;;4.57;3.75;;;-0.10;99.90;;;;;;4992486;28;20742;-65
2022/01/22 02:07:11;;;;;;;4.22;3.63;;;-0.10;99.90;;;;;;4992818;28;20199;-65
2022/01/22 02:09:42;;;;;;;11.07;4.32;;;-0.10;99.90;;;;;;4992645;28;20192;-72
2022/01/22 02:12:17;;;;;;;10.05;3.70;;;-0.10;99.90;;;;;;4992660;28;20204;-65
2022/01/22 02:25:56;;;;;;;5.90;3.58;;;0.00;99.90;;;;;;4994331;28;20255;-72
2022/01/22 02:28:24;;;;;;;9.63;3.80;;;0.00;99.90;;;;;;4992638;28;20208;-72
2022/01/22 02:31:00;;;;;;;7.60;3.25;;;0.00;99.90;;;;;;4995664;28;20638;-72
2022/01/22 02:33:44;;;;;;;5.25;3.60;;;0.10;99.90;;;;;;4996157;28;20211;-65
2022/01/22 02:41:23;;;;;;;6.30;3.65;;;0.10;99.90;;;;;;4997622;28;20168;-74
2022/01/22 02:43:52;;;;;;;6.53;4.00;;;0.10;99.90;;;;;;4996008;28;20280;-75
2022/01/22 02:46:22;;;;;;;6.80;3.53;;;0.20;99.90;;;;;;4995863;28;20172;-74
2022/01/22 02:48:49;;;;;;;7.53;3.60;;;0.20;99.90;;;;;;4995764;28;20203;-67
2022/01/22 02:51:17;;;;;;;5.85;3.42;;;0.20;99.90;;;;;;4995615;28;20187;-68
2022/01/22 02:53:45;;;;;;;6.30;4.35;;;0.20;99.90;;;;;;4996078;28;20630;-67
2022/01/22 02:56:16;;;;;;;3.92;2.85;;;0.30;99.90;;;;;;4995926;28;20246;-68
2022/01/22 02:58:43;;;;;;;5.72;3.10;;;0.30;99.90;;;;;;4995769;28;20218;-74
2022/01/22 03:01:15;;;;;;;3.33;2.50;;;0.30;99.90;;;;;;4995505;28;20243;-68
2022/01/22 03:03:58;;;;;;;5.88;3.28;;;0.40;99.90;;;;;;4995525;28;20231;-73
2022/01/22 03:06:25;;;;;;;4.88;3.03;;;0.40;99.90;;;;;;4979475;28;20199;-75
2022/01/22 03:08:53;;;;;;;3.83;3.03;;;0.40;99.90;;;;;;4979405;28;20208;-68
2022/01/22 03:11:25;;;;;;;8.95;3.70;;;0.50;99.90;;;;;;4979187;28;20529;-68
2022/01/22 03:22:26;;;;;;;7.15;3.20;;;0.60;99.90;;;;;;4910099;28;20231;-70
2022/01/22 03:27:40;;;;;;;3.08;2.72;;;0.70;99.90;;;;;;4996507;28;20202;-68
2022/01/22 03:30:09;;;;;;;4.38;3.05;;;0.70;99.90;;;;;;4978765;28;20215;-68
2022/01/22 03:32:48;;;;;;;4.63;3.10;;;0.80;99.90;;;;;;4978655;28;20249;-75
2022/01/22 03:37:51;;;;;;;5.85;4.10;;;0.80;99.90;;;;;;4996278;28;20203;-70
2022/01/22 03:43:09;;;;;;;4.43;3.05;;;0.90;99.90;;;;;;4955930;28;20382;-74
2022/01/22 03:45:36;;;;;;;7.07;3.10;;;0.90;99.90;;;;;;4978495;28;20184;-75
2022/01/22 03:48:08;;;;;;;5.82;3.40;;;0.90;99.90;;;;;;4978610;28;20214;-74
2022/01/22 03:50:41;;;;;;;6.15;3.70;;;0.90;99.90;;;;;;4996085;28;20179;-75
2022/01/22 03:53:07;;;;;;;13.68;7.00;;;0.90;99.90;;;;;;4978826;28;20208;-68
2022/01/22 03:56:03;;;;;;;138.73;57.78;;;0.90;99.90;;;;;;4977905;28;20179;-74
2022/01/22 03:58:34;;;;;;;216.68;87.95;;;0.90;99.90;;;;;;4995296;28;20555;-75
2022/01/22 04:09:32;;;;;;;17.40;10.82;;;0.80;99.90;;;;;;4995912;28;20213;-74
2022/01/22 04:12:02;;;;;;;7.80;5.60;;;0.80;99.90;;;;;;4978624;28;20192;-68
2022/01/22 04:14:34;;;;;;;5.45;4.25;;;0.70;99.90;;;;;;4978125;28;20190;-75
2022/01/22 04:25:30;;;;;;;6.78;4.22;;;0.50;99.90;;;;;;4995317;28;20222;-68
2022/01/22 04:28:02;;;;;;;3.42;3.13;;;0.50;99.90;;;;;;4977680;28;20208;-74
2022/01/22 04:30:32;;;;;;;5.45;2.65;;;0.40;99.90;;;;;;4977822;28;20573;-74
2022/01/22 04:33:04;;;;;;;4.75;3.45;;;0.30;99.90;;;;;;4977431;28;20204;-75
2022/01/22 04:35:31;;;;;;;4.53;2.75;;;0.30;99.90;;;;;;4977666;28;20187;-74
2022/01/22 04:37:59;;;;;;;5.40;3.17;;;0.30;99.90;;;;;;4977381;28;20223;-68
2022/01/22 04:40:26;;;;;;;8.27;5.22;;;0.30;99.90;;;;;;4977601;28;20176;-68
2022/01/22 04:42:53;;;;;;;8.98;4.18;;;0.30;99.90;;;;;;4977239;28;20219;-68
2022/01/22 04:45:52;;;;;;;9.55;3.50;;;0.20;99.90;;;;;;4977534;28;20180;-74
2022/01/22 04:48:27;;;;;;;8.80;4.55;;;0.30;99.90;;;;;;4994375;28;20211;-74
2022/01/22 04:56:35;;;;;;;4.63;3.70;;;0.30;99.90;;;;;;4964799;28;20614;-68
2022/01/22 04:59:03;;;;;;;7.68;5.13;;;0.30;99.90;;;;;;4977562;28;20214;-74
2022/01/22 05:01:35;;;;;;;7.70;4.45;;;0.30;99.90;;;;;;4976917;28;20180;-74
2022/01/22 05:04:03;;;;;;;5.53;4.20;;;0.30;99.90;;;;;;4977333;28;20254;-74
2022/01/22 05:06:31;;;;;;;5.40;3.92;;;0.30;99.90;;;;;;4977658;28;20180;-75
2022/01/22 05:09:03;;;;;;;6.43;2.95;;;0.30;99.90;;;;;;4977236;28;20278;-74
2022/01/22 05:11:31;;;;;;;6.18;2.72;;;0.30;99.90;;;;;;4976673;28;20180;-75
2022/01/22 05:14:01;;;;;;;4.97;2.83;;;0.30;99.90;;;;;;4976629;28;20210;-68
2022/01/22 05:16:27;;;;;;;3.10;2.63;;;0.40;99.90;;;;;;4977051;28;20629;-67
2022/01/22 05:19:11;;;;;;;3.90;2.58;;;0.40;99.90;;;;;;4976791;28;20734;-69
2022/01/22 05:21:43;;;;;;;3.45;3.15;;;0.40;99.90;;;;;;4976812;28;20258;-68
2022/01/22 05:24:15;;;;;;;8.50;3.65;;;0.50;99.90;;;;;;4976872;28;20208;-68
2022/01/22 05:32:21;;;;;;;4.38;2.90;;;0.60;99.90;;;;;;4994828;28;20286;-68
2022/01/22 05:38:01;;;;;;;4.63;3.28;;;0.60;99.90;;;;;;4994453;28;20613;-72
2022/01/22 05:40:29;;;;;;;4.47;3.90;;;0.70;99.90;;;;;;4976891;28;20286;-76
2022/01/22 05:42:56;;;;;;;5.22;3.55;;;0.70;99.90;;;;;;4976580;28;20256;-71
2022/01/22 05:45:38;;;;;;;3.67;3.38;;;0.70;99.90;;;;;;4976439;28;20175;-75
2022/01/22 05:48:05;;;;;;;5.57;4.18;;;0.80;99.90;;;;;;4976975;28;20662;-68
2022/01/22 05:51:12;;;;;;;7.70;3.70;;;0.80;99.90;;;;;;4976810;28;20262;-74
2022/01/22 05:53:49;;;;;;;4.75;3.08;;;0.80;99.90;;;;;;4993044;28;20219;-71
2022/01/22 06:01:49;;;;;;;3.67;3.10;;;1.00;99.90;;;;;;4994276;28;20211;-68
2022/01/22 06:04:19;;;;;;;5.13;3.25;;;1.00;99.90;;;;;;4977052;28;20696;-75
2022/01/22 06:06:51;;;;;;;5.88;3.70;;;1.00;99.90;;;;;;4980236;28;20192;-75
2022/01/22 06:09:17;;;;;;;5.55;3.45;;;1.00;99.90;;;;;;4980555;28;20254;-68
2022/01/22 06:14:30;;;;;;;3.97;3.05;;;1.00;99.90;;;;;;4998522;28;20199;-68
2022/01/22 06:16:57;;;;;;;5.05;3.00;;;1.00;99.90;;;;;;4980242;28;20303;-68
2022/01/22 06:19:25;;;;;;;4.07;3.33;;;1.00;99.90;;;;;;4980105;28;20653;-68
2022/01/22 06:21:52;;;;;;;5.82;3.65;;;1.10;99.90;;;;;;4979878;28;20212;-68
2022/01/22 06:24:31;;;;;;;4.50;3.55;;;1.00;99.90;;;;;;4980129;28;20192;-75
2022/01/22 06:26:58;;;;;;;7.68;4.22;;;1.00;99.90;;;;;;4980426;28;20182;-68
2022/01/22 06:29:25;;;;;;;8.10;5.68;;;1.00;99.90;;;;;;4980096;28;20600;-68
2022/01/22 06:31:52;;;;;;;8.50;5.60;;;1.00;99.90;;;;;;4979824;28;20186;-76
2022/01/22 06:34:21;;;;;;;4.75;3.95;;;0.90;99.90;;;;;;4980058;28;20184;-75
2022/01/22 06:36:49;;;;;;;5.07;4.10;;;0.90;99.90;;;;;;4979680;28;20184;-75
2022/01/22 06:39:16;;;;;;;11.60;5.30;;;0.90;99.90;;;;;;4979909;28;20739;-68
2022/01/22 06:41:49;;;;;;;10.32;5.47;;;0.80;99.90;;;;;;4979629;28;20630;-68
2022/01/22 06:44:29;;;;;;;9.80;5.30;;;0.80;99.90;;;;;;4979616;28;20187;-75
2022/01/22 06:46:56;;;;;;;9.77;5.63;;;0.80;99.90;;;;;;4979738;28;20190;-68
2022/01/22 06:49:28;;;;;;;8.90;4.82;;;0.80;99.90;;;;;;4979448;28;20184;-68
2022/01/22 06:52:07;;;;;;;7.78;4.63;;;0.70;99.90;;;;;;4979878;28;20522;-75
2022/01/22 06:54:34;;;;;;;8.50;5.60;;;0.70;99.90;;;;;;4979492;28;20568;-68
2022/01/22 06:57:01;;;;;;;8.65;5.90;;;0.60;99.90;;;;;;4979510;28;20184;-68
2022/01/22 06:59:27;;;;;;;6.28;5.15;;;0.70;99.90;;;;;;4978956;28;20183;-68
2022/01/22 07:01:55;;;;;;;6.00;5.03;;;0.60;99.90;;;;;;4978848;28;20251;-68
2022/01/22 07:04:23;;;;;;;6.05;5.10;;;0.60;99.90;;;;;;4977369;28;20184;-68
2022/01/22 07:06:50;;;;;;;8.85;5.55;;;0.60;99.90;;;;;;4977902;28;20184;-68
2022/01/22 07:09:17;;;;;;;7.70;5.15;;;0.50;99.90;;;;;;4978202;28;20688;-68
2022/01/22 07:11:44;;;;;;;8.00;6.18;;;0.50;99.90;;;;;;4977746;28;20191;-68
2022/01/22 07:14:11;;;;;;;8.55;5.13;;;0.50;99.90;;;;;;4977396;28;20204;-75
2022/01/22 07:16:53;;;;;;;7.25;4.70;;;0.40;99.90;;;;;;4977382;28;20649;-74
2022/01/22 07:19:40;;;;;;;10.30;5.72;;;0.40;99.90;;;;;;4976424;28;20250;-75
2022/01/22 07:22:29;;;;;;;8.98;5.68;;;0.40;99.90;;;;;;4977102;28;20224;-68
2022/01/22 07:25:02;;;;;;;9.55;5.47;;;0.40;99.90;;;;;;4976783;28;20214;-75
2022/01/22 07:27:36;;;;;;;8.18;5.45;;;0.40;99.90;;;;;;4975943;28;20207;-75
2022/01/22 07:30:03;;;;;;;7.75;6.10;;;0.40;99.90;;;;;;4977043;28;20274;-74
2022/01/22 07:32:35;;;;;;;12.65;7.15;;;0.40;99.90;;;;;;4977868;28;20195;-68
2022/01/22 07:35:03;;;;;;;12.82;7.72;;;0.50;99.90;;;;;;4978978;28;20195;-70
2022/01/22 07:37:30;;;;;;;9.40;6.82;;;0.50;99.90;;;;;;4978709;28;20266;-68
2022/01/22 07:40:10;;;;;;;7.53;5.72;;;0.50;99.90;;;;;;4979089;28;20279;-74
2022/01/22 07:42:39;;;;;;;7.30;5.40;;;0.50;99.90;;;;;;4978494;28;20708;-68
2022/01/22 07:45:13;;;;;;;17.13;7.40;;;0.50;99.90;;;;;;4978550;28;20218;-73
2022/01/22 07:47:41;;;;;;;16.17;9.10;;;0.50;99.90;;;;;;4978354;28;20232;-75
2022/01/22 07:50:10;;;;;;;10.55;7.15;;;0.50;99.90;;;;;;4978544;28;20635;-74
2022/01/22 07:52:40;;;;;;;12.13;8.48;;;0.60;99.90;;;;;;4978941;28;20212;-75
2022/01/22 07:55:10;;;;;;;10.15;7.40;;;0.60;99.90;;;;;;4978432;28;20227;-75
2022/01/22 07:57:48;;;;;;;9.82;6.53;;;0.60;99.90;;;;;;4978206;28;20195;-74
2022/01/22 08:00:28;;;;;;;8.88;6.03;;;0.60;99.90;;;;;;4977485;28;20188;-75
2022/01/22 08:03:02;;;;;;;11.00;6.75;;;0.60;99.90;;;;;;4978286;28;20216;-75
2022/01/22 08:05:36;;;;;;;8.20;6.05;;;0.70;99.90;;;;;;4986341;28;20231;-69
2022/01/22 08:08:05;;;;;;;10.82;6.80;;;0.70;99.90;;;;;;4994461;28;20980;-68
2022/01/22 08:10:52;;;;;;;11.00;7.68;;;0.70;99.90;;;;;;4994345;28;20180;-74
2022/01/22 08:13:42;;;;;;;17.38;7.20;;;0.80;99.90;;;;;;4994481;28;20219;-75
2022/01/22 08:16:09;;;;;;;7.38;5.88;;;0.80;99.90;;;;;;4994566;28;20180;-68
2022/01/22 08:18:41;;;;;;;13.27;7.40;;;0.80;99.90;;;;;;4994378;28;20219;-75
2022/01/22 08:21:08;;;;;;;9.27;6.15;;;0.90;99.90;;;;;;4995610;28;20622;-68
2022/01/22 08:23:37;;;;;;;7.53;5.53;;;0.90;99.90;;;;;;4994153;28;20237;-74
2022/01/22 08:26:09;;;;;;;8.82;5.78;;;0.90;99.90;;;;;;4994433;28;20183;-74
2022/01/22 08:28:54;;;;;;;11.20;9.07;;;1.00;99.90;;;;;;4993437;28;20211;-75
2022/01/22 08:32:23;;;;;;;13.02;8.48;;;1.00;99.90;;;;;;4994421;28;20183;-75
2022/01/22 08:37:49;;;;;;;6.35;4.95;;;1.00;99.90;;;;;;4995797;28;20219;-74
2022/01/22 08:40:19;;;;;;;6.93;4.75;;;1.00;99.90;;;;;;4995558;28;20180;-75
2022/01/22 08:42:47;;;;;;;6.38;5.18;;;1.00;99.90;;;;;;4993713;28;20219;-68
2022/01/22 08:45:13;;;;;;;7.00;4.55;;;1.10;99.90;;;;;;4993774;28;20210;-74
2022/01/22 08:47:43;;;;;;;9.05;6.10;;;1.10;99.90;;;;;;4993444;28;20239;-74
2022/01/22 08:50:23;;;;;;;5.18;4.50;;;1.20;99.90;;;;;;4993381;28;20196;-68
2022/01/22 08:52:59;;;;;;;4.72;4.32;;;1.30;99.90;;;;;;4993793;28;20208;-75
2022/01/22 08:55:25;;;;;;;4.22;3.40;;;1.60;99.90;;;;;;4993703;28;20211;-68
2022/01/22 08:57:52;;;;;;;6.22;4.40;;;1.80;99.90;;;;;;4993433;28;20735;-68
2022/01/22 09:00:39;;;;;;;4.38;3.33;;;2.00;99.90;;;;;;4993413;28;20533;-74
2022/01/22 09:03:06;;;;;;;5.05;3.63;;;2.40;99.90;;;;;;4993353;28;20279;-75
2022/01/22 09:05:35;;;;;;;4.03;3.63;;;2.90;99.90;;;;;;4993138;28;20231;-68
2022/01/22 09:08:07;;;;;;;3.42;3.13;;;3.50;99.90;;;;;;4993110;28;20203;-75
2022/01/22 09:10:38;;;;;;;3.10;2.80;;;3.90;99.90;;;;;;4993378;28;20179;-75
2022/01/22 09:13:11;;;;;;;4.22;3.08;;;4.00;99.90;;;;;;4994590;28;20557;-75
2022/01/22 09:15:39;;;;;;;3.80;3.35;;;4.00;99.90;;;;;;4993221;28;20211;-74
2022/01/22 09:18:07;;;;;;;4.05;2.70;;;3.90;99.90;;;;;;4993053;28;20219;-68
2022/01/22 09:23:06;;;;;;;4.40;3.13;;;3.60;99.90;;;;;;4994475;28;20208;-75
2022/01/22 09:25:35;;;;;;;3.80;2.90;;;3.50;99.90;;;;;;4994485;28;20171;-75
2022/01/22 09:28:12;;;;;;;3.72;3.03;;;3.40;99.90;;;;;;4993223;28;20217;-75
2022/01/22 09:30:43;;;;;;;3.40;2.92;;;3.30;99.90;;;;;;4994413;28;20667;-75
2022/01/22 09:33:10;;;;;;;3.42;3.05;;;3.20;99.90;;;;;;4992960;28;20282;-68
2022/01/22 09:35:37;;;;;;;3.47;3.13;;;3.20;99.90;;;;;;4994493;28;20168;-68
2022/01/22 09:38:03;;;;;;;5.22;3.50;;;3.10;99.90;;;;;;4993497;28;20196;-69
2022/01/22 09:40:31;;;;;;;4.13;3.43;;;3.10;99.90;;;;;;4997117;28;20175;-69
2022/01/22 09:43:09;;;;;;;4.70;3.67;;;3.10;99.90;;;;;;4980931;28;20455;-75
2022/01/22 09:45:36;;;;;;;3.40;3.10;;;3.00;99.90;;;;;;4996964;28;20221;-68
2022/01/22 09:48:06;;;;;;;4.05;3.63;;;3.00;99.90;;;;;;4996908;28;20723;-68
2022/01/22 09:50:34;;;;;;;4.25;3.60;;;3.00;99.90;;;;;;4996905;28;20191;-75
2022/01/22 09:53:03;;;;;;;4.78;4.15;;;3.00;99.90;;;;;;4996746;28;20196;-75
2022/01/22 09:55:29;;;;;;;4.45;3.78;;;3.00;99.90;;;;;;4996740;28;20179;-68
2022/01/22 09:57:58;;;;;;;4.60;3.50;;;3.00;99.90;;;;;;4998096;28;20195;-74
2022/01/22 10:00:36;;;;;;;4.75;3.80;;;3.10;99.90;;;;;;4996624;28;20191;-75
2022/01/22 10:03:13;;;;;;;4.13;3.72;;;3.10;99.90;;;;;;4996645;28;20227;-68
2022/01/22 10:05:42;;;;;;;4.60;3.95;;;3.10;99.90;;;;;;4996410;28;20263;-76
2022/01/22 10:08:38;;;;;;;5.07;4.38;;;3.10;99.90;;;;;;4996506;28;20208;-75
2022/01/22 10:11:25;;;;;;;5.20;4.55;;;3.10;99.90;;;;;;4994048;28;20710;-75
2022/01/22 10:14:00;;;;;;;5.22;4.82;;;3.10;99.90;;;;;;4996244;28;20216;-75
2022/01/22 10:16:35;;;;;;;7.13;5.13;;;3.10;99.90;;;;;;4996463;28;20186;-75
2022/01/22 10:19:20;;;;;;;5.18;4.55;;;3.10;99.90;;;;;;4996628;28;20653;-69
2022/01/22 10:21:52;;;;;;;5.28;4.78;;;3.10;99.90;;;;;;4996757;28;20193;-69
2022/01/22 10:24:44;;;;;;;5.40;4.72;;;3.10;99.90;;;;;;4996445;28;20183;-75
2022/01/22 10:27:31;;;;;;;5.72;5.20;;;3.20;99.90;;;;;;4989596;28;20246;-75
2022/01/22 10:30:04;;;;;;;7.35;4.60;;;3.20;99.90;;;;;;4996232;28;20188;-75
2022/01/22 10:35:12;;;;;;;5.97;4.85;;;3.20;99.90;;;;;;4997456;28;20187;-68
2022/01/22 10:37:38;;;;;;;5.25;4.75;;;3.20;99.90;;;;;;4996165;28;20204;-69
2022/01/22 10:40:33;;;;;;;5.03;4.47;;;3.20;99.90;;;;;;4996307;28;20215;-68
2022/01/22 10:43:21;;;;;;;5.00;4.50;;;3.20;99.90;;;;;;4996054;28;20219;-76
2022/01/22 10:49:24;;;;;;;7.60;5.28;;;3.30;99.90;;;;;;4997619;28;20331;-76
2022/01/22 10:51:56;;;;;;;6.90;5.78;;;3.30;99.90;;;;;;4994619;28;20548;-76
2022/01/22 10:54:25;;;;;;;7.15;5.50;;;3.40;99.90;;;;;;4996100;28;20190;-68
2022/01/22 10:56:53;;;;;;;7.95;5.93;;;3.50;99.90;;;;;;4995755;28;20186;-68
2022/01/22 10:59:22;;;;;;;6.57;5.70;;;3.60;99.90;;;;;;4996125;28;20551;-69
2022/01/22 11:02:03;;;;;;;6.38;5.30;;;3.60;99.90;;;;;;4995568;28;20645;-76
2022/01/22 11:04:40;;;;;;;6.65;5.72;;;3.60;99.90;;;;;;4995428;28;20298;-69
2022/01/22 11:07:23;;;;;;;8.98;6.53;;;3.70;99.90;;;;;;4979373;28;20175;-68
2022/01/22 11:09:50;;;;;;;8.50;5.75;;;3.70;99.90;;;;;;4979487;28;20184;-68
2022/01/22 11:12:18;;;;;;;6.93;6.13;;;3.80;99.90;;;;;;4979616;28;20254;-68
2022/01/22 11:14:47;;;;;;;7.63;6.22;;;3.90;99.90;;;;;;4978304;28;20928;-68
2022/01/22 11:17:14;;;;;;;9.95;6.43;;;4.00;99.90;;;;;;4979247;28;20199;-68
2022/01/22 11:20:08;;;;;;;8.23;6.40;;;4.00;99.90;;;;;;4979298;28;20180;-75
2022/01/22 11:22:46;;;;;;;8.30;6.47;;;4.00;99.90;;;;;;4978976;28;20223;-75
2022/01/22 11:25:13;;;;;;;12.95;8.60;;;4.00;99.90;;;;;;4979131;28;20194;-67
2022/01/22 11:27:43;;;;;;;12.23;7.78;;;4.00;99.90;;;;;;4978886;28;20211;-74
2022/01/22 11:30:14;;;;;;;7.55;6.60;;;3.90;99.90;;;;;;4977582;28;20254;-68
2022/01/22 11:32:42;;;;;;;8.00;6.95;;;3.90;99.90;;;;;;4978974;28;20196;-76
2022/01/22 11:35:12;;;;;;;7.10;6.40;;;3.90;99.90;;;;;;4979072;28;20184;-75
2022/01/22 11:37:48;;;;;;;9.27;7.43;;;3.80;99.90;;;;;;4978138;28;20227;-68
2022/01/22 11:40:27;;;;;;;10.00;7.63;;;3.80;99.90;;;;;;4978744;28;20246;-75
2022/01/22 11:43:08;;;;;;;8.02;6.43;;;3.80;99.90;;;;;;4978581;28;20242;-75
2022/01/22 11:46:01;;;;;;;11.13;7.85;;;3.80;99.90;;;;;;4978677;28;20246;-68
2022/01/22 11:48:30;;;;;;;7.45;6.63;;;3.80;99.90;;;;;;4978228;28;20225;-75
2022/01/22 11:51:26;;;;;;;9.70;8.02;;;3.80;99.90;;;;;;4978597;28;20179;-68
2022/01/22 11:53:57;;;;;;;9.68;7.57;;;3.80;99.90;;;;;;4988056;28;20219;-75
2022/01/22 11:56:27;;;;;;;7.35;6.60;;;3.80;99.90;;;;;;4978736;28;20207;-69
2022/01/22 11:59:00;;;;;;;6.45;5.82;;;3.90;99.90;;;;;;4978460;28;20207;-68
2022/01/22 12:02:05;;;;;;;9.65;6.25;;;3.90;99.90;;;;;;4977620;28;20234;-75
2022/01/22 12:04:38;;;;;;;10.32;7.30;;;3.90;99.90;;;;;;4978363;28;20236;-71
2022/01/22 12:07:05;;;;;;;10.63;7.40;;;3.90;99.90;;;;;;4994341;28;20226;-75
2022/01/22 12:09:43;;;;;;;7.95;7.00;;;3.90;99.90;;;;;;4994255;28;20275;-68
2022/01/22 12:15:13;;;;;;;9.20;6.82;;;4.00;99.90;;;;;;4995728;28;20194;-68
2022/01/22 12:18:03;;;;;;;9.85;7.07;;;4.00;99.90;;;;;;4995390;28;20204;-68
2022/01/22 12:23:09;;;;;;;13.63;8.00;;;4.30;99.90;;;;;;4995568;28;20222;-68
2022/01/22 12:25:35;;;;;;;7.38;5.78;;;4.50;99.90;;;;;;4995507;28;20160;-68
2022/01/22 12:28:06;;;;;;;9.35;6.55;;;4.70;99.90;;;;;;4994026;28;20743;-68
2022/01/22 12:30:44;;;;;;;6.57;5.80;;;5.00;99.90;;;;;;4994486;28;20195;-75
2022/01/22 12:33:15;;;;;;;7.10;5.20;;;5.10;99.90;;;;;;4994434;28;20250;-68
2022/01/22 12:35:57;;;;;;;7.38;6.15;;;5.20;99.90;;;;;;4994029;28;20175;-68
2022/01/22 12:38:37;;;;;;;8.32;6.55;;;5.30;99.90;;;;;;4992931;28;20693;-75
2022/01/22 12:41:32;;;;;;;9.18;6.00;;;5.40;99.90;;;;;;4993887;28;20180;-68
2022/01/22 12:44:32;;;;;;;7.30;6.70;;;5.40;99.90;;;;;;4993375;28;20290;-75
2022/01/22 12:47:13;;;;;;;6.78;5.90;;;5.30;99.90;;;;;;4993963;28;20187;-69
2022/01/22 12:49:39;;;;;;;7.57;6.40;;;5.30;99.90;;;;;;4993737;28;20283;-68
2022/01/22 12:52:19;;;;;;;6.15;5.25;;;5.30;99.90;;;;;;4993618;28;20191;-75
2022/01/22 12:54:55;;;;;;;8.70;5.72;;;5.30;99.90;;;;;;4992714;28;20252;-68
2022/01/22 12:57:24;;;;;;;9.43;7.50;;;5.20;99.90;;;;;;4993550;28;20283;-68
2022/01/22 13:00:18;;;;;;;11.52;6.70;;;5.10;99.90;;;;;;4993691;28;20231;-68
2022/01/22 13:02:59;;;;;;;8.55;6.82;;;5.10;99.90;;;;;;4993248;28;20582;-68
2022/01/22 13:05:33;;;;;;;9.02;6.38;;;5.00;99.90;;;;;;4993045;28;20322;-68
2022/01/22 13:08:02;;;;;;;9.32;6.88;;;4.90;99.90;;;;;;4994646;28;20669;-75
2022/01/22 13:10:33;;;;;;;8.55;6.50;;;4.80;99.90;;;;;;4993390;28;20633;-75
2022/01/22 13:13:06;;;;;;;8.15;6.07;;;4.70;99.90;;;;;;4992135;28;20211;-75
2022/01/22 13:15:35;;;;;;;8.43;6.18;;;4.70;99.90;;;;;;4993296;28;20207;-68
2022/01/22 13:18:03;;;;;;;10.20;7.97;;;4.80;99.90;;;;;;4994506;28;20196;-71
2022/01/22 13:20:34;;;;;;;8.40;7.10;;;4.80;99.90;;;;;;4993177;28;20175;-68
2022/01/22 13:23:11;;;;;;;9.73;7.15;;;4.90;99.90;;;;;;4993052;28;20748;-75
2022/01/22 13:25:41;;;;;;;8.70;6.53;;;4.90;99.90;;;;;;4993337;28;20720;-68
2022/01/22 13:28:13;;;;;;;8.32;6.35;;;4.90;99.90;;;;;;4992974;28;20203;-75
2022/01/22 13:30:53;;;;;;;7.43;6.43;;;5.00;99.90;;;;;;4993126;28;20175;-75
2022/01/22 13:33:30;;;;;;;9.25;7.13;;;5.00;99.90;;;;;;4992951;28;20696;-75
2022/01/22 13:36:29;;;;;;;11.52;7.70;;;5.10;99.90;;;;;;4993338;28;20179;-74
2022/01/22 13:39:19;;;;;;;9.40;7.30;;;5.10;99.90;;;;;;4993648;28;20270;-75
2022/01/22 13:47:45;;;;;;;13.02;8.38;;;5.20;99.90;;;;;;4994530;28;20219;-75
2022/01/22 13:50:12;;;;;;;8.43;6.55;;;5.30;99.90;;;;;;4993281;28;20212;-68
2022/01/22 13:52:44;;;;;;;7.80;6.00;;;5.40;99.90;;;;;;4993472;28;20199;-75
2022/01/22 13:55:16;;;;;;;7.45;6.53;;;5.50;99.90;;;;;;4992951;28;20191;-75
2022/01/22 13:57:47;;;;;;;7.15;6.45;;;5.70;99.90;;;;;;4992822;28;20207;-68
2022/01/22 14:00:20;;;;;;;10.45;6.10;;;6.00;99.90;;;;;;4992964;28;20551;-68
2022/01/22 14:05:18;;;;;;;9.48;8.50;;;6.40;99.90;;;;;;4994022;28;20689;-75
2022/01/22 14:07:47;;;;;;;8.45;6.97;;;6.60;99.90;;;;;;4976037;28;20199;-68
2022/01/22 14:10:13;;;;;;;7.10;6.40;;;6.90;99.90;;;;;;4976467;28;20274;-68
2022/01/22 14:12:51;;;;;;;9.97;6.87;;;7.10;99.90;;;;;;4974526;28;20295;-72
2022/01/22 14:15:27;;;;;;;8.05;7.00;;;7.20;99.90;;;;;;4976396;28;20188;-75
2022/01/22 14:20:53;;;;;;;12.85;7.18;;;7.80;99.90;;;;;;4994456;28;20518;-75
2022/01/22 14:23:25;;;;;;;10.52;7.70;;;8.10;99.90;;;;;;4976302;28;20250;-69
2022/01/22 14:26:10;;;;;;;10.52;7.28;;;8.60;99.90;;;;;;4978286;28;20716;-68
2022/01/22 14:28:57;;;;;;;9.38;7.25;;;8.90;99.90;;;;;;4979944;28;20208;-76
2022/01/22 14:31:57;;;;;;;8.18;7.40;;;9.10;99.90;;;;;;4977902;28;20196;-69
2022/01/22 14:34:31;;;;;;;8.63;7.72;;;9.10;99.90;;;;;;4979773;28;20282;-69
2022/01/22 14:36:57;;;;;;;8.23;7.43;;;9.10;99.90;;;;;;4980037;28;20611;-68
2022/01/22 14:43:49;;;;;;;8.45;7.53;;;9.10;99.90;;;;;;4980171;28;20271;-68
2022/01/22 14:45:23;;;;;;;8.88;7.97;;;9.00;99.90;;;;;;4997597;28;20182;-68
2022/01/22 14:47:58;;;;;;;8.15;7.32;;;8.90;99.90;;;;;;4979517;28;20207;-69
2022/01/22 14:50:31;;;;;;;8.63;6.95;;;8.90;99.90;;;;;;4980199;28;20190;-76
2022/01/22 14:53:10;;;;;;;9.80;7.80;;;8.90;99.90;;;;;;4997158;28;20195;-75
2022/01/22 14:55:36;;;;;;;9.73;8.77;;;8.80;99.90;;;;;;4997243;28;20161;-75
2022/01/22 14:58:03;;;;;;;9.43;8.43;;;8.70;99.90;;;;;;4979445;28;20282;-75
2022/01/22 15:00:30;;;;;;;15.82;10.60;;;8.50;99.90;;;;;;4979149;28;20184;-67
2022/01/22 15:03:02;;;;;;;10.98;8.68;;;8.20;99.90;;;;;;4979576;28;20572;-75
2022/01/22 15:05:32;;;;;;;12.23;9.55;;;7.90;99.90;;;;;;4986758;28;20290;-68
2022/01/22 15:08:02;;;;;;;10.63;8.35;;;7.50;99.90;;;;;;4995666;28;20252;-75
2022/01/22 15:10:31;;;;;;;12.25;8.60;;;7.20;99.90;;;;;;4995596;28;20191;-68
2022/01/22 15:13:07;;;;;;;12.32;9.73;;;6.80;99.90;;;;;;4995366;28;20696;-74
2022/01/22 15:15:42;;;;;;;15.13;10.85;;;6.50;99.90;;;;;;4995719;28;20546;-68
2022/01/22 15:18:39;;;;;;;16.40;11.88;;;6.20;99.90;;;;;;4995390;28;20552;-75
2022/01/22 15:21:02;;;;;;;14.25;11.60;;;5.90;99.90;;;;;;4996347;28;20216;-68
2022/01/22 15:23:29;;;;;;;20.45;12.88;;;5.70;99.90;;;;;;4995109;28;20222;-68
2022/01/22 15:25:56;;;;;;;22.80;13.23;;;5.50;99.90;;;;;;4995202;28;20195;-68
2022/01/22 15:28:24;;;;;;;21.33;14.18;;;5.30;99.90;;;;;;4995194;28;20605;-68
2022/01/22 15:30:59;;;;;;;18.75;11.27;;;5.10;99.90;;;;;;4994986;28;20180;-74
2022/01/22 15:34:07;;;;;;;21.50;12.65;;;5.00;99.90;;;;;;4995105;28;20772;-68
2022/01/22 15:36:20;;;;;;;17.88;13.10;;;4.80;99.90;;;;;;4993797;28;20196;-68
2022/01/22 15:38:47;;;;;;;41.47;24.75;;;4.70;99.90;;;;;;4994835;28;20200;-68